Sunday, January 20, 2019, 1:55 AM EST
Back to Local

KSWF, Newburgh / Stewart

Location: New Windsor, NY, United States Lat: 41.5
Local Time: 1:55 AM EST ( 6:55 GMT) Lon: -74.1
Time Zone: US/Eastern Elev: 492 ft

Show me the last for .
Show Decoded

2019-01-20 00:45 METAR KSWF 200545Z 11008KT 3/4SM R09/3000FT M06/M06 A2983 =
2019-01-19 23:45 METAR KSWF 200445Z 08006KT 3/4SM R09/3000FT -SN OVC004 M00/M05 A2985 RMK PRESFR
                 =
2019-01-19 22:45 METAR KSWF 200345Z COR 07010KT 3/4SM R09/3000FT -SN OVC004 M04/M04 A2991 RMK
                 PRESFR =
2019-01-19 21:45 METAR KSWF 200245Z 07009KT 1SM R09/3000FT SN OVC005 M05/M05 A2997 RMK PRESFR =
2019-01-19 19:45 METAR KSWF 200045Z 08005KT 1 1/2SM -SN BR OVC005 M04/M04 A3004 RMK PRESFR =
2019-01-19 18:45 METAR KSWF 192345Z 08005KT 2SM -SN BR BKN010 OVC020 M03/M04 A3010 =
2019-01-19 17:45 METAR KSWF 192245Z 08005KT 7SM -SN OVC030 M02/M05 A3011 =
2019-01-19 16:45 METAR KSWF 192145Z 07005KT 10SM OVC040 00/M05 A3011 =
2019-01-19 15:45 METAR KSWF 192045Z 09005KT 20SM OVC035 00/M05 A3017 =
2019-01-19 14:45 METAR KSWF 191945Z 08008KT 20SM OVC035 00/M06 A3016 =
2019-01-19 13:45 METAR KSWF 191845Z 08008KT 20SM OVC035 00/M06 A3016 =
2019-01-19 12:45 METAR KSWF 191745Z 08008KT 20SM OVC040 00/M06 A3021 =
2019-01-19 11:45 METAR KSWF 191645Z 08008KT 20SM OVC040 00/M06 A3024 =
2019-01-19 10:45 METAR KSWF 191545Z 08008KT 15SM OVC030 M01/M06 A3028 =
2019-01-19 08:45 METAR KSWF 191345Z VRB05KT 15SM BKN040 M01/M04 A3026 =
2019-01-19 07:45 METAR KSWF 191245Z 00000KT 20SM FEW040 M06/M07 A3022 =
2019-01-19 06:45 METAR KSWF 191145Z 00000KT 10SM FEW040 M07/M07 A3021 =
2019-01-19 05:45 METAR KSWF 191045Z 00000KT 10SM FEW040 M05/M06 A3021 =
2019-01-19 04:45 METAR KSWF 190945Z 27005KT 10SM FEW045 M06/M07 A3018 =
2019-01-19 03:45 METAR KSWF 190845Z 27006KT 7SM FEW045 M04/M06 A3019 =
2019-01-19 02:45 METAR KSWF 190745Z 27005KT 10SM BKN050 M05/M06 A3019 =

Support USWX by starting your Amazon purchase here.